Time;durP1;ratioP1;P1;durP2;ratioP2;P2;SDS_P1;SDS_P2;PMS_P1;PMS_P2;Temp;Humidity;BMP_temperature;BMP_pressure;BME280_temperature;BME280_humidity;BME280_pressure;Samples;Min_cycle;Max_cycle;Signal;HPM_P1;HPM_P2
2024/02/24 00:00:28;;;;;;;;;4.00;1.67;;;;;10.89;100.00;98802.72;6177469;23;45254;-81
2024/02/24 00:02:53;;;;;;;;;1.00;1.00;;;;;10.83;100.00;98801.06;6199974;23;45347;-80
2024/02/24 00:05:19;;;;;;;;;3.33;3.00;;;;;10.88;100.00;98809.81;6174488;23;45307;-82
2024/02/24 00:07:44;;;;;;;;;2.33;2.33;;;;;10.80;100.00;98804.63;6173031;23;44799;-81
2024/02/24 00:10:10;;;;;;;;;1.00;1.00;;;;;10.82;100.00;98807.25;6200103;23;45424;-80
2024/02/24 00:12:36;;;;;;;;;3.67;2.00;;;;;10.77;100.00;98803.81;6168364;23;46873;-80
2024/02/24 00:15:02;;;;;;;;;1.00;1.00;;;;;10.72;100.00;98819.84;6192245;23;45372;-81
2024/02/24 00:17:27;;;;;;;;;1.00;1.00;;;;;10.67;100.00;98818.19;6166298;23;45347;-81
2024/02/24 00:19:52;;;;;;;;;8.00;1.33;;;;;10.55;100.00;98812.16;6193425;22;44793;-81
2024/02/24 00:22:18;;;;;;;;;1.00;1.00;;;;;10.52;100.00;98819.31;6165005;23;47133;-81
2024/02/24 00:24:43;;;;;;;;;1.00;1.00;;;;;10.52;100.00;98822.88;6163695;23;46002;-81
2024/02/24 00:27:08;;;;;;;;;1.00;1.00;;;;;10.50;100.00;98822.00;6166767;23;45401;-81
2024/02/24 00:29:34;;;;;;;;;1.00;1.00;;;;;10.51;100.00;98826.41;6166601;23;44866;-81
2024/02/24 00:31:59;;;;;;;;;1.00;1.00;;;;;10.54;100.00;98831.69;6192089;23;46086;-80
2024/02/24 00:34:24;;;;;;;;;3.33;1.00;;;;;10.70;100.00;98820.78;6161586;22;45340;-81
2024/02/24 00:36:50;;;;;;;;;2.00;2.00;;;;;10.61;100.00;98832.47;6160664;23;45398;-81
2024/02/24 00:39:18;;;;;;;;;1.67;1.67;;;;;10.54;100.00;98820.16;6188453;23;45403;-81
2024/02/24 00:41:44;;;;;;;;;2.00;0.33;;;;;10.77;100.00;98827.75;6158348;23;46958;-81
2024/02/24 00:44:09;;;;;;;;;2.00;2.00;;;;;10.83;100.00;98822.31;6186190;23;45313;-81
2024/02/24 00:46:35;;;;;;;;;1.00;0.00;;;;;10.85;100.00;98825.84;6188606;22;45365;-81
2024/02/24 00:49:01;;;;;;;;;1.33;1.33;;;;;10.93;100.00;98829.22;6188078;22;45228;-81
2024/02/24 00:51:26;;;;;;;;;0.00;0.00;;;;;10.97;100.00;98832.72;6187307;23;46479;-81
2024/02/24 00:53:51;;;;;;;;;0.00;0.00;;;;;10.67;100.00;98834.13;6184684;23;45381;-79
2024/02/24 00:56:17;;;;;;;;;1.00;1.00;;;;;10.50;100.00;98835.31;6160278;23;45406;-79
2024/02/24 00:58:42;;;;;;;;;0.00;0.00;;;;;10.31;100.00;98837.34;6187381;23;45273;-79
2024/02/24 01:01:08;;;;;;;;;1.00;1.00;;;;;10.20;100.00;98840.16;6158043;23;47257;-79
2024/02/24 01:03:33;;;;;;;;;0.67;0.67;;;;;10.06;100.00;98847.44;6160263;23;44945;-79
2024/02/24 01:05:58;;;;;;;;;1.00;0.67;;;;;10.02;100.00;98853.72;6157208;23;45301;-79
2024/02/24 01:08:24;;;;;;;;;1.00;1.00;;;;;9.92;100.00;98847.63;6185901;22;45337;-79
2024/02/24 01:10:49;;;;;;;;;2.00;2.00;;;;;10.02;100.00;98853.72;6186300;23;45469;-80
2024/02/24 01:13:15;;;;;;;;;3.67;1.67;;;;;9.93;100.00;98843.19;6158639;23;45307;-79
2024/02/24 01:15:40;;;;;;;;;0.00;0.00;;;;;9.98;100.00;98857.31;6161619;23;45807;-79
2024/02/24 01:18:05;;;;;;;;;0.67;0.67;;;;;9.95;100.00;98857.34;6188620;23;45364;-79
2024/02/24 01:20:31;;;;;;;;;0.67;0.67;;;;;9.96;100.00;98859.09;6186829;22;45947;-79
2024/02/24 01:22:59;;;;;;;;;0.00;0.00;;;;;9.95;100.00;98862.63;6160172;23;45901;-79
2024/02/24 01:25:25;;;;;;;;;1.00;1.00;;;;;9.90;100.00;98870.69;6158830;23;45361;-80
2024/02/24 01:27:50;;;;;;;;;0.00;0.00;;;;;9.90;100.00;98875.13;6186378;23;45277;-79
2024/02/24 01:30:16;;;;;;;;;1.00;1.00;;;;;9.92;100.00;98870.66;6160891;23;47150;-80
2024/02/24 01:32:42;;;;;;;;;1.33;0.67;;;;;9.73;100.00;98883.28;6185596;23;44813;-80
2024/02/24 01:35:08;;;;;;;;;1.00;1.00;;;;;10.58;100.00;98878.59;6160108;23;45338;-81
2024/02/24 01:37:34;;;;;;;;;1.00;1.00;;;;;10.67;100.00;98877.53;6185350;23;45342;-79
2024/02/24 01:40:00;;;;;;;;;1.00;1.00;;;;;10.60;100.00;98875.88;6189598;23;45385;-79
2024/02/24 01:42:25;;;;;;;;;2.00;2.00;;;;;10.61;100.00;98889.16;6190911;23;45705;-79
2024/02/24 01:44:51;;;;;;;;;3.00;2.00;;;;;10.09;100.00;98891.66;6161116;23;45446;-80
2024/02/24 01:47:18;;;;;;;;;2.33;2.33;;;;;10.03;100.00;98892.63;6159296;23;45507;-79
2024/02/24 01:49:44;;;;;;;;;1.33;1.33;;;;;9.64;100.00;98904.66;6157471;23;46631;-79
2024/02/24 01:52:10;;;;;;;;;0.00;0.00;;;;;9.35;100.00;98898.75;6184012;23;45370;-79
2024/02/24 01:54:36;;;;;;;;;1.00;1.00;;;;;9.25;100.00;98902.41;6163523;23;45613;-79
2024/02/24 01:57:03;;;;;;;;;2.00;1.00;;;;;9.27;100.00;98897.97;6181485;23;45380;-79
2024/02/24 01:59:28;;;;;;;;;2.00;2.00;;;;;9.17;100.00;98909.53;6183673;23;45436;-80
2024/02/24 02:01:54;;;;;;;;;1.00;1.00;;;;;9.12;100.00;98898.09;6184258;23;45328;-80
2024/02/24 02:04:19;;;;;;;;;1.00;1.00;;;;;9.02;100.00;98895.53;6182700;23;45425;-79
2024/02/24 02:06:45;;;;;;;;;3.00;1.00;;;;;9.65;100.00;98901.94;6181976;23;45335;-79
2024/02/24 02:09:10;;;;;;;;;1.00;1.00;;;;;9.00;100.00;98907.94;6180805;23;47335;-79
2024/02/24 02:11:36;;;;;;;;;1.00;1.00;;;;;8.87;100.00;98895.69;6179854;23;45792;-79
2024/02/24 02:14:01;;;;;;;;;1.00;1.00;;;;;8.87;100.00;98911.59;6184144;23;45660;-79
2024/02/24 02:16:27;;;;;;;;;1.00;1.00;;;;;8.80;100.00;98905.44;6184706;23;45436;-80
2024/02/24 02:18:53;;;;;;;;;0.67;0.67;;;;;8.84;100.00;98918.69;6182767;23;45385;-80
2024/02/24 02:21:19;;;;;;;;;0.33;0.33;;;;;8.73;100.00;98908.19;6183076;22;45367;-79
2024/02/24 02:23:45;;;;;;;;;1.00;1.00;;;;;8.86;100.00;98917.78;6183535;23;45327;-79
2024/02/24 02:26:13;;;;;;;;;0.67;0.67;;;;;8.90;100.00;98903.59;6183513;23;45210;-79
2024/02/24 02:28:45;;;;;;;;;0.00;0.00;;;;;9.19;100.00;98921.91;6183696;23;47306;-79
2024/02/24 02:31:10;;;;;;;;;0.00;0.00;;;;;9.02;100.00;98916.75;6184152;23;49817;-79
2024/02/24 02:33:36;;;;;;;;;1.00;1.00;;;;;8.77;100.00;98913.44;6183677;23;45656;-80
2024/02/24 02:36:01;;;;;;;;;0.00;0.00;;;;;8.79;100.00;98935.50;6183246;23;45489;-80
2024/02/24 02:38:27;;;;;;;;;2.00;1.00;;;;;8.69;100.00;98922.34;6183201;23;45360;-80
2024/02/24 02:40:52;;;;;;;;;0.67;0.67;;;;;8.75;100.00;98927.59;6183558;23;44758;-80
2024/02/24 02:43:17;;;;;;;;;1.00;0.33;;;;;8.67;100.00;98913.53;6185809;23;45389;-80
2024/02/24 02:45:43;;;;;;;;;1.00;1.00;;;;;8.64;100.00;98919.72;6183630;23;45344;-79
2024/02/24 02:49:01;;;;;;;;;1.00;1.00;;;;;8.88;100.00;98923.94;6180965;23;48021;-80
2024/02/24 02:51:27;;;;;;;;;1.00;0.33;;;;;8.61;100.00;98917.97;6182255;23;45399;-80
2024/02/24 02:53:52;;;;;;;;;1.00;1.00;;;;;8.66;100.00;98930.31;6182881;23;45297;-79
2024/02/24 02:56:20;;;;;;;;;1.00;1.00;;;;;8.61;100.00;98928.56;6156285;23;45540;-80
2024/02/24 02:58:46;;;;;;;;;1.00;1.00;;;;;8.56;100.00;98927.75;6184450;23;45387;-79
2024/02/24 03:01:12;;;;;;;;;0.67;0.67;;;;;8.58;100.00;98933.91;6184751;23;45227;-80
2024/02/24 03:03:37;;;;;;;;;0.00;0.00;;;;;8.52;100.00;98933.91;6157880;23;45274;-79
2024/02/24 03:06:05;;;;;;;;;1.00;0.00;;;;;8.61;100.00;98947.13;6157458;23;45247;-79
2024/02/24 03:08:32;;;;;;;;;0.33;0.33;;;;;8.46;100.00;98931.31;6158389;23;47326;-79
2024/02/24 03:10:58;;;;;;;;;0.67;0.67;;;;;8.57;100.00;98945.38;6157075;23;45389;-79
2024/02/24 03:13:24;;;;;;;;;2.00;1.00;;;;;8.55;100.00;98944.50;6183718;23;45311;-79
2024/02/24 03:15:49;;;;;;;;;0.67;0.67;;;;;8.50;100.00;98954.25;6156021;23;45602;-78
2024/02/24 03:18:14;;;;;;;;;1.00;1.00;;;;;8.48;100.00;98945.44;6155422;23;46912;-79
2024/02/24 03:20:40;;;;;;;;;2.00;0.00;;;;;8.47;100.00;98951.63;6155530;23;45889;-79
2024/02/24 03:23:06;;;;;;;;;0.67;0.67;;;;;8.56;100.00;98954.25;6183565;23;45233;-78
2024/02/24 03:25:32;;;;;;;;;0.67;0.67;;;;;8.59;100.00;98953.34;6157876;23;45773;-79
2024/02/24 03:27:57;;;;;;;;;1.00;1.00;;;;;8.56;100.00;98948.03;6185671;23;46003;-79
2024/02/24 03:30:23;;;;;;;;;1.00;1.00;;;;;8.77;100.00;98945.25;6155174;23;45423;-80
2024/02/24 03:32:48;;;;;;;;;2.00;0.00;;;;;9.08;100.00;98952.06;6182363;23;45305;-80
2024/02/24 03:35:13;;;;;;;;;2.00;2.00;;;;;8.71;100.00;98952.38;6182925;23;45381;-79
2024/02/24 03:37:41;;;;;;;;;0.00;0.00;;;;;8.80;100.00;98947.84;6155103;23;46820;-78
2024/02/24 03:40:08;;;;;;;;;0.00;0.00;;;;;8.61;100.00;98949.78;6155551;23;45758;-80
2024/02/24 03:42:34;;;;;;;;;1.00;1.00;;;;;8.57;100.00;98942.75;6182149;23;45301;-79
2024/02/24 03:45:02;;;;;;;;;2.00;1.00;;;;;8.66;100.00;98948.84;6155201;23;45363;-78
2024/02/24 03:47:27;;;;;;;;;1.00;1.00;;;;;8.54;100.00;98949.81;6154732;23;47900;-80
2024/02/24 03:49:53;;;;;;;;;1.00;1.00;;;;;8.49;100.00;98949.84;6154384;23;45628;-80
2024/02/24 03:52:18;;;;;;;;;0.67;0.67;;;;;8.47;100.00;98949.00;6181901;23;45332;-80
2024/02/24 03:54:43;;;;;;;;;0.67;0.67;;;;;8.50;100.00;98948.94;6163126;23;45586;-79
2024/02/24 03:57:09;;;;;;;;;1.00;1.00;;;;;8.48;100.00;98953.38;6184630;23;44931;-79
2024/02/24 03:59:41;;;;;;;;;1.00;1.00;;;;;8.41;100.00;98955.19;6185589;23;45411;-79
2024/02/24 04:02:06;;;;;;;;;1.00;1.00;;;;;8.46;100.00;98968.41;6181945;23;45719;-80
2024/02/24 04:04:32;;;;;;;;;2.00;1.00;;;;;8.45;100.00;98969.31;6184571;23;44934;-79
2024/02/24 04:06:57;;;;;;;;;1.67;1.67;;;;;8.47;100.00;98979.91;6185618;23;47855;-79
2024/02/24 04:09:23;;;;;;;;;1.00;1.00;;;;;8.50;100.00;98978.09;6183246;23;45383;-79
2024/02/24 04:11:50;;;;;;;;;1.00;1.00;;;;;8.55;100.00;98983.38;6183853;23;45501;-79
2024/02/24 04:14:16;;;;;;;;;3.00;3.00;;;;;8.55;100.00;98988.69;6185327;23;45452;-78
2024/02/24 04:16:41;;;;;;;;;2.00;2.00;;;;;8.36;100.00;98964.91;6180741;23;46827;-79
2024/02/24 04:19:06;;;;;;;;;1.00;1.00;;;;;8.47;100.00;99007.28;6181133;23;45775;-79
2024/02/24 04:21:32;;;;;;;;;1.67;1.67;;;;;8.47;100.00;98987.84;6183455;23;45500;-79
2024/02/24 04:23:57;;;;;;;;;1.00;1.00;;;;;8.46;100.00;99000.19;6186599;23;45339;-79
2024/02/24 04:26:23;;;;;;;;;0.67;0.67;;;;;8.43;100.00;99000.22;6181212;23;46997;-79
2024/02/24 04:28:48;;;;;;;;;1.00;1.00;;;;;8.50;100.00;98991.34;6184944;23;45396;-79
2024/02/24 04:31:13;;;;;;;;;0.67;0.67;;;;;8.56;100.00;98999.28;6182791;23;45392;-79
2024/02/24 04:33:39;;;;;;;;;2.00;2.00;;;;;8.54;100.00;99005.47;6183315;23;45342;-79
2024/02/24 04:36:05;;;;;;;;;1.00;1.00;;;;;8.65;100.00;99018.66;6184632;23;45324;-79
2024/02/24 04:38:30;;;;;;;;;1.33;1.00;;;;;8.38;100.00;99016.13;6182518;23;45365;-79
2024/02/24 04:40:55;;;;;;;;;1.00;1.00;;;;;8.35;100.00;99015.25;6182106;23;45294;-79
2024/02/24 04:43:21;;;;;;;;;0.33;0.33;;;;;8.32;100.00;99023.19;6183053;23;45357;-79
2024/02/24 04:45:46;;;;;;;;;1.67;1.67;;;;;8.28;100.00;99027.66;6183205;23;46945;-79
2024/02/24 04:48:18;;;;;;;;;1.00;1.00;;;;;8.47;100.00;99027.59;6183398;23;45238;-79
2024/02/24 04:50:44;;;;;;;;;1.00;1.00;;;;;8.15;100.00;99015.34;6185910;23;45384;-79
2024/02/24 04:53:09;;;;;;;;;1.33;0.67;;;;;8.21;100.00;99026.78;6181218;23;45345;-79
2024/02/24 04:55:36;;;;;;;;;0.67;0.67;;;;;8.18;100.00;99028.53;6181905;22;45266;-79
2024/02/24 04:58:02;;;;;;;;;0.67;0.67;;;;;8.33;100.00;99027.63;6155992;23;45202;-79
2024/02/24 05:00:28;;;;;;;;;2.00;2.00;;;;;8.20;100.00;99030.31;6156333;23;45277;-79
2024/02/24 05:02:53;;;;;;;;;2.00;2.00;;;;;8.25;100.00;99045.31;6158383;23;45252;-80
2024/02/24 05:05:19;;;;;;;;;1.00;1.00;;;;;8.25;100.00;99042.66;6183186;23;45973;-80
2024/02/24 05:07:44;;;;;;;;;2.00;2.00;;;;;8.33;100.00;99044.38;6185898;23;45440;-79
2024/02/24 05:11:03;;;;;;;;;5.00;2.00;;;;;8.65;100.00;99047.81;6184610;23;45413;-80
2024/02/24 05:13:28;;;;;;;;;1.67;1.67;;;;;8.51;100.00;99061.13;6154609;23;45495;-79
2024/02/24 05:15:53;;;;;;;;;4.33;2.67;;;;;8.59;100.00;99062.84;6155256;23;45880;-79
2024/02/24 05:18:19;;;;;;;;;2.67;2.67;;;;;8.64;100.00;99061.94;6155185;23;45283;-78
2024/02/24 05:20:44;;;;;;;;;1.33;1.00;;;;;8.74;100.00;99064.53;6156592;23;45190;-79
2024/02/24 05:23:09;;;;;;;;;1.00;1.00;;;;;8.78;100.00;99066.25;6184081;23;45350;-79
2024/02/24 05:25:36;;;;;;;;;2.00;2.00;;;;;9.16;100.00;99057.19;6157374;23;48031;-79
2024/02/24 05:28:01;;;;;;;;;4.33;2.33;;;;;8.89;100.00;99075.97;6184484;23;45507;-79
2024/02/24 05:30:29;;;;;;;;;3.67;3.67;;;;;8.91;100.00;99072.41;6156979;23;45381;-79
2024/02/24 05:32:55;;;;;;;;;2.00;2.00;;;;;8.85;100.00;99068.88;6184233;23;45451;-80
2024/02/24 05:35:21;;;;;;;;;3.00;3.00;;;;;8.93;100.00;99065.31;6156272;23;57419;-80
2024/02/24 05:37:46;;;;;;;;;5.33;2.33;;;;;8.82;100.00;99075.09;6185248;23;45333;-80
2024/02/24 05:40:12;;;;;;;;;3.67;3.00;;;;;8.81;100.00;99086.59;6184738;23;45489;-79
2024/02/24 05:42:38;;;;;;;;;2.00;2.00;;;;;8.82;100.00;99077.75;6158813;23;45434;-79
2024/02/24 05:45:03;;;;;;;;;3.67;3.00;;;;;8.85;100.00;99076.84;6182863;23;45582;-79
2024/02/24 05:47:29;;;;;;;;;2.00;2.00;;;;;8.79;100.00;99078.66;6156230;23;44877;-79
2024/02/24 05:49:54;;;;;;;;;3.67;3.67;;;;;8.74;100.00;99090.16;6182555;23;45421;-79
2024/02/24 05:52:20;;;;;;;;;2.00;2.00;;;;;8.69;100.00;99076.06;6156222;23;45401;-79
2024/02/24 05:54:45;;;;;;;;;3.00;3.00;;;;;8.63;100.00;99076.97;6182640;23;45448;-79
2024/02/24 05:57:10;;;;;;;;;4.33;3.00;;;;;8.69;100.00;99086.66;6184433;23;45474;-79
2024/02/24 05:59:36;;;;;;;;;4.33;3.00;;;;;8.53;100.00;99092.03;6183181;23;45305;-80
2024/02/24 06:02:02;;;;;;;;;2.00;2.00;;;;;8.46;100.00;99089.41;6155900;23;45621;-79
2024/02/24 06:04:27;;;;;;;;;3.00;1.00;;;;;8.37;100.00;99087.63;6182782;23;45341;-79
2024/02/24 06:06:52;;;;;;;;;2.33;2.00;;;;;8.34;100.00;99088.53;6155229;23;45262;-78
2024/02/24 06:09:18;;;;;;;;;3.00;2.00;;;;;8.37;100.00;99092.94;6156360;23;45265;-79
2024/02/24 06:11:43;;;;;;;;;2.33;1.33;;;;;8.39;100.00;99093.81;6184526;23;45290;-79
2024/02/24 06:14:09;;;;;;;;;1.00;1.00;;;;;8.64;100.00;99104.34;6157795;23;47399;-79
2024/02/24 06:16:34;;;;;;;;;3.67;2.00;;;;;8.51;100.00;99108.81;6186125;23;45364;-79
2024/02/24 06:19:00;;;;;;;;;2.67;2.67;;;;;8.48;100.00;99119.41;6157670;23;45318;-80
2024/02/24 06:21:28;;;;;;;;;3.00;3.00;;;;;8.56;100.00;99117.63;6184489;23;45359;-79
2024/02/24 06:23:55;;;;;;;;;3.00;3.00;;;;;8.64;100.00;99133.50;6157395;23;47495;-79
2024/02/24 06:26:20;;;;;;;;;1.00;1.00;;;;;8.56;100.00;99134.41;6184265;23;45359;-80
2024/02/24 06:28:45;;;;;;;;;2.00;2.00;;;;;8.60;100.00;99137.91;6157802;23;45287;-79
2024/02/24 06:31:13;;;;;;;;;3.00;3.00;;;;;8.73;100.00;99146.72;6184288;23;45225;-78
2024/02/24 06:33:39;;;;;;;;;2.00;2.00;;;;;8.65;100.00;99151.16;6157502;23;48226;-78
2024/02/24 06:36:05;;;;;;;;;5.00;2.00;;;;;8.66;100.00;99150.25;6158261;23;45367;-79
2024/02/24 06:38:31;;;;;;;;;2.33;1.00;;;;;8.59;100.00;99139.69;6155964;23;45432;-79
2024/02/24 06:40:56;;;;;;;;;1.00;1.00;;;;;8.61;100.00;99142.34;6156905;23;45362;-79
2024/02/24 06:43:21;;;;;;;;;3.00;3.00;;;;;8.78;100.00;99151.09;6184656;23;46548;-79
2024/02/24 06:45:47;;;;;;;;;6.33;5.67;;;;;8.81;100.00;99159.03;6182647;23;45425;-79
2024/02/24 06:48:13;;;;;;;;;0.67;0.67;;;;;8.88;100.00;99161.66;6155163;23;45779;-79
2024/02/24 06:50:38;;;;;;;;;1.33;1.33;;;;;8.85;100.00;99172.25;6155683;23;45344;-79
2024/02/24 06:53:03;;;;;;;;;1.00;1.00;;;;;8.84;100.00;99159.91;6184563;23;45451;-79
2024/02/24 06:55:35;;;;;;;;;2.33;2.33;;;;;8.84;100.00;99170.53;6182721;23;45351;-79
2024/02/24 06:58:09;;;;;;;;;5.67;2.00;;;;;8.99;100.00;99175.75;6157401;23;45380;-79
2024/02/24 07:00:35;;;;;;;;;2.33;2.33;;;;;8.90;100.00;99187.28;6157587;23;45431;-79
2024/02/24 07:03:00;;;;;;;;;6.00;6.00;;;;;8.83;100.00;99172.28;6159311;23;47147;-79
2024/02/24 07:05:25;;;;;;;;;1.67;1.33;;;;;8.86;100.00;99184.66;6160064;23;45394;-79
2024/02/24 07:07:51;;;;;;;;;5.00;5.00;;;;;8.89;100.00;99195.25;6188043;23;45360;-79
2024/02/24 07:10:17;;;;;;;;;5.00;2.00;;;;;8.86;100.00;99185.53;6163036;23;45775;-79
2024/02/24 07:12:44;;;;;;;;;5.00;2.00;;;;;8.92;100.00;99184.63;6159970;23;47963;-80
2024/02/24 07:15:11;;;;;;;;;5.67;3.00;;;;;8.96;100.00;99189.91;6184903;23;45369;-79
2024/02/24 07:17:36;;;;;;;;;5.00;2.00;;;;;8.78;100.00;99166.13;6160029;23;45326;-78
2024/02/24 07:20:03;;;;;;;;;3.67;2.00;;;;;8.90;100.00;99199.66;6186202;23;45306;-80
2024/02/24 07:22:28;;;;;;;;;2.00;2.00;;;;;8.90;100.00;99189.06;6158729;23;46930;-79
2024/02/24 07:24:54;;;;;;;;;3.00;2.00;;;;;9.01;100.00;99198.72;6186421;23;45360;-79
2024/02/24 07:27:19;;;;;;;;;2.00;2.00;;;;;9.00;100.00;99199.59;6158921;23;45463;-79
2024/02/24 07:29:44;;;;;;;;;2.00;2.00;;;;;8.94;100.00;99174.88;6187134;23;45496;-79
2024/02/24 07:32:10;;;;;;;;;1.33;1.00;;;;;9.08;100.00;99204.00;6187526;23;45281;-79
2024/02/24 07:34:35;;;;;;;;;1.00;1.00;;;;;9.07;100.00;99210.19;6158184;23;45418;-80
2024/02/24 07:37:01;;;;;;;;;2.33;2.00;;;;;9.10;100.00;99221.66;6184736;23;45497;-79
2024/02/24 07:39:27;;;;;;;;;4.00;2.33;;;;;9.11;100.00;99214.56;6160800;23;45427;-79
2024/02/24 07:41:53;;;;;;;;;1.33;1.33;;;;;9.22;100.00;99207.47;6183584;23;45975;-78
2024/02/24 07:44:18;;;;;;;;;2.00;1.00;;;;;9.23;100.00;99211.91;6157342;23;44897;-79
2024/02/24 07:46:44;;;;;;;;;1.67;1.67;;;;;9.37;100.00;99218.00;6158137;23;45511;-79
2024/02/24 07:49:09;;;;;;;;;1.67;1.67;;;;;9.36;100.00;99218.88;6183585;23;45315;-79
2024/02/24 07:51:35;;;;;;;;;1.00;1.00;;;;;9.29;100.00;99219.81;6184463;23;45809;-79
2024/02/24 07:54:00;;;;;;;;;2.33;2.33;;;;;9.29;100.00;99230.44;6157071;23;45310;-79
2024/02/24 07:56:27;;;;;;;;;2.00;2.00;;;;;9.48;100.00;99235.63;6177582;23;45318;-79
2024/02/24 07:58:53;;;;;;;;;1.00;1.00;;;;;9.34;100.00;99231.28;6185339;23;45370;-78
2024/02/24 08:01:19;;;;;;;;;2.00;2.00;;;;;9.47;100.00;99233.84;6181047;23;47170;-80
2024/02/24 08:03:44;;;;;;;;;3.00;3.00;;;;;9.59;100.00;99237.34;6183395;23;45402;-79
2024/02/24 08:06:10;;;;;;;;;5.00;5.00;;;;;9.43;100.00;99240.94;6183869;23;45315;-79
2024/02/24 08:08:38;;;;;;;;;2.00;2.00;;;;;9.48;100.00;99240.94;6184213;23;45434;-79
2024/02/24 08:11:04;;;;;;;;;3.00;1.67;;;;;9.49;100.00;99256.81;6182978;23;45385;-80
2024/02/24 08:13:30;;;;;;;;;1.33;1.33;;;;;9.53;100.00;99265.66;6180799;23;45382;-78
2024/02/24 08:15:55;;;;;;;;;2.00;2.00;;;;;9.50;100.00;99253.31;6181585;23;45272;-80
2024/02/24 08:18:22;;;;;;;;;3.00;3.00;;;;;9.52;100.00;99263.91;6182129;23;45330;-79
2024/02/24 08:20:48;;;;;;;;;6.00;4.33;;;;;9.67;100.00;99274.44;6184118;22;46194;-80
2024/02/24 08:23:14;;;;;;;;;2.00;2.00;;;;;9.72;100.00;99277.94;6181906;23;45355;-80
2024/02/24 08:25:39;;;;;;;;;2.00;2.00;;;;;9.75;100.00;99280.56;6183795;23;45424;-80
2024/02/24 08:28:05;;;;;;;;;1.67;1.67;;;;;9.86;100.00;99274.34;6185261;22;45409;-79
2024/02/24 08:30:30;;;;;;;;;1.33;1.33;;;;;9.76;100.00;99281.47;6185061;22;46283;-79
2024/02/24 08:32:56;;;;;;;;;1.00;1.00;;;;;9.69;100.00;99280.59;6185026;23;45421;-80
2024/02/24 08:35:21;;;;;;;;;2.00;2.00;;;;;9.74;100.00;99286.78;6183895;23;45451;-79
2024/02/24 08:37:46;;;;;;;;;3.00;3.00;;;;;9.84;100.00;99282.31;6185064;23;45295;-80
2024/02/24 08:40:12;;;;;;;;;1.67;1.67;;;;;9.76;100.00;99295.63;6188912;23;45528;-79
2024/02/24 08:42:38;;;;;;;;;3.00;3.00;;;;;9.67;100.00;99286.81;6185026;23;45389;-79
2024/02/24 08:45:04;;;;;;;;;1.33;1.33;;;;;9.65;100.00;99292.13;6187407;23;45455;-80
2024/02/24 08:47:30;;;;;;;;;2.00;2.00;;;;;9.60;100.00;99289.50;6189825;23;45280;-79
2024/02/24 08:49:55;;;;;;;;;2.33;2.33;;;;;9.81;100.00;99285.84;6187897;23;45615;-79
2024/02/24 08:52:20;;;;;;;;;2.00;2.00;;;;;9.94;100.00;99269.84;6184786;23;45659;-79
2024/02/24 08:54:46;;;;;;;;;1.67;1.67;;;;;9.96;100.00;99276.91;6184972;23;45273;-79
2024/02/24 08:57:11;;;;;;;;;2.67;2.67;;;;;10.01;100.00;99271.56;6162160;23;45243;-79
2024/02/24 08:59:37;;;;;;;;;1.67;1.67;;;;;9.93;100.00;99273.38;6185752;23;45682;-80
2024/02/24 09:02:02;;;;;;;;;0.00;0.00;;;;;10.07;100.00;99294.53;6159132;23;45422;-79
2024/02/24 09:04:28;;;;;;;;;1.00;1.00;;;;;10.08;100.00;99299.84;6183283;23;45281;-79
2024/02/24 09:06:53;;;;;;;;;5.00;2.67;;;;;10.14;100.00;99296.25;6184272;23;45287;-79
2024/02/24 09:09:18;;;;;;;;;2.00;2.00;;;;;10.15;100.00;99304.22;6186591;23;45622;-79
2024/02/24 09:11:46;;;;;;;;;3.00;2.00;;;;;10.23;100.00;99308.59;6159417;23;45337;-80
2024/02/24 09:14:12;;;;;;;;;1.00;1.00;;;;;10.23;100.00;99308.59;6157485;23;45330;-79
2024/02/24 09:16:37;;;;;;;;;1.00;1.00;;;;;10.16;100.00;99299.78;6156636;23;45503;-80
2024/02/24 09:19:03;;;;;;;;;5.33;2.67;;;;;10.32;100.00;99324.47;6183134;23;45447;-80
2024/02/24 09:21:28;;;;;;;;;3.00;2.33;;;;;10.37;100.00;99318.25;6184597;23;45376;-79
2024/02/24 09:23:54;;;;;;;;;1.00;1.00;;;;;10.47;100.00;99329.69;6187342;23;45431;-79
2024/02/24 09:27:00;;;;;;;;;2.33;2.33;;;;;10.70;100.00;99326.81;6186936;23;45433;-80
2024/02/24 09:29:27;;;;;;;;;2.33;1.00;;;;;10.54;100.00;99326.09;6161054;22;47698;-80
2024/02/24 09:31:52;;;;;;;;;2.00;2.00;;;;;10.48;100.00;99330.56;6185071;23;45240;-80
2024/02/24 09:34:18;;;;;;;;;4.33;3.00;;;;;10.54;100.00;99336.72;6186121;23;48435;-80
2024/02/24 09:36:44;;;;;;;;;2.67;2.67;;;;;10.61;100.00;99329.56;6156725;23;45286;-80
2024/02/24 09:39:11;;;;;;;;;2.00;0.33;;;;;10.68;100.00;99323.28;6157331;23;46906;-79
2024/02/24 09:41:37;;;;;;;;;2.00;2.00;;;;;10.86;100.00;99335.53;6183866;23;45544;-80
2024/02/24 09:44:04;;;;;;;;;0.00;0.00;;;;;11.14;100.00;99345.91;6183663;23;45427;-79
2024/02/24 09:46:30;;;;;;;;;0.00;0.00;;;;;11.14;100.00;99337.94;6156851;23;45333;-80
2024/02/24 09:48:56;;;;;;;;;3.00;3.00;;;;;11.20;100.00;99346.72;6157352;23;47450;-80
2024/02/24 09:51:21;;;;;;;;;4.00;1.33;;;;;11.26;100.00;99340.44;6156676;23;45297;-79
2024/02/24 09:53:46;;;;;;;;;1.33;1.33;;;;;11.40;100.00;99335.84;6184557;23;45171;-78
2024/02/24 09:56:13;;;;;;;;;1.67;1.67;;;;;11.46;100.00;99342.00;6170918;23;45298;-80
2024/02/24 09:58:41;;;;;;;;;3.67;3.67;;;;;11.56;100.00;99351.63;6184599;22;45324;-79
2024/02/24 10:01:06;;;;;;;;;3.00;2.00;;;;;11.33;100.00;99355.47;6184102;23;45823;-79
2024/02/24 10:03:33;;;;;;;;;1.00;1.00;;;;;11.35;100.00;99348.34;6183684;23;45276;-80
2024/02/24 10:06:08;;;;;;;;;2.33;2.00;;;;;11.58;100.00;99350.72;6183198;23;45411;-80
2024/02/24 10:08:34;;;;;;;;;1.00;1.00;;;;;11.38;100.00;99348.28;6180348;23;48193;-79
2024/02/24 10:11:00;;;;;;;;;1.33;1.00;;;;;11.50;100.00;99352.59;6186000;23;45393;-79
2024/02/24 10:13:30;;;;;;;;;2.00;2.00;;;;;11.51;100.00;99353.47;6186185;23;44720;-79
2024/02/24 10:15:55;;;;;;;;;2.00;2.00;;;;;11.54;100.00;99348.13;6182971;23;44838;-79
2024/02/24 10:18:21;;;;;;;;;1.00;1.00;;;;;11.66;100.00;99361.28;6184917;23;46360;-79
2024/02/24 10:20:46;;;;;;;;;1.67;1.67;;;;;11.69;100.00;99369.22;6184588;22;45330;-78
2024/02/24 10:23:12;;;;;;;;;1.00;1.00;;;;;11.79;100.00;99368.19;6187855;23;45811;-80
2024/02/24 10:25:38;;;;;;;;;2.67;2.67;;;;;11.85;100.00;99367.22;6186843;23;45297;-81
2024/02/24 10:28:08;;;;;;;;;2.00;2.00;;;;;12.03;100.00;99362.59;6185313;23;47122;-79
2024/02/24 10:30:33;;;;;;;;;1.67;1.67;;;;;11.87;100.00;99367.22;6187355;23;45747;-79
2024/02/24 10:33:00;;;;;;;;;5.33;2.00;;;;;12.07;100.00;99362.53;6188916;22;45333;-80
2024/02/24 10:35:26;;;;;;;;;1.00;0.67;;;;;12.03;100.00;99367.94;6187226;22;45744;-80
2024/02/24 10:37:55;;;;;;;;;1.67;1.67;;;;;12.06;100.00;99355.44;6185414;23;46623;-79
2024/02/24 10:40:22;;;;;;;;;1.00;1.00;;;;;12.14;100.00;99363.31;6185760;22;45371;-79
2024/02/24 10:42:48;;;;;;;;;1.00;1.00;;;;;12.18;100.00;99365.06;6186166;23;45283;-81
2024/02/24 10:45:13;;;;;;;;;0.33;0.33;;;;;12.23;100.00;99376.53;6186385;23;45323;-79
2024/02/24 10:47:39;;;;;;;;;0.33;0.33;;;;;12.33;100.00;99361.28;6184249;23;48026;-79
2024/02/24 10:50:10;;;;;;;;;1.67;1.67;;;;;12.42;100.00;99366.44;6186305;23;45409;-79
2024/02/24 10:52:37;;;;;;;;;1.33;1.33;;;;;12.51;100.00;99376.97;6180995;23;45235;-79
2024/02/24 10:55:03;;;;;;;;;2.33;1.00;;;;;12.39;100.00;99377.19;6181672;23;45483;-80
2024/02/24 10:57:32;;;;;;;;;3.33;3.00;;;;;12.55;100.00;99375.16;6159397;23;48456;-79
2024/02/24 10:59:59;;;;;;;;;3.33;2.33;;;;;12.44;100.00;99372.63;6159698;23;45533;-80
2024/02/24 11:02:26;;;;;;;;;1.67;1.67;;;;;12.46;100.00;99367.28;6159491;23;45425;-79
2024/02/24 11:04:52;;;;;;;;;1.00;1.00;;;;;12.54;100.00;99382.28;6186863;23;45293;-79
2024/02/24 11:07:22;;;;;;;;;1.00;1.00;;;;;12.66;100.00;99380.31;6161144;23;47522;-80
2024/02/24 11:09:51;;;;;;;;;1.00;1.00;;;;;12.80;100.00;99381.84;6157497;23;45499;-80
2024/02/24 11:12:20;;;;;;;;;1.67;1.00;;;;;12.71;100.00;99367.78;6155378;23;45409;-80
2024/02/24 11:14:50;;;;;;;;;2.67;2.00;;;;;12.66;100.00;99365.16;6155614;23;45453;-80
2024/02/24 11:17:51;;;;;;;;;1.00;1.00;;;;;12.77;100.00;99357.00;6155465;23;45927;-80
2024/02/24 11:20:38;;;;;;;;;2.00;2.00;;;;;12.87;100.00;99363.94;6182352;23;45455;-80
2024/02/24 11:23:19;;;;;;;;;1.00;1.00;;;;;13.02;100.00;99357.44;6156786;23;45413;-80
2024/02/24 11:25:45;;;;;;;;;1.00;1.00;;;;;12.84;100.00;99368.44;6182959;23;45460;-80
2024/02/24 11:28:29;;;;;;;;;1.33;1.33;;;;;13.05;100.00;99367.19;6184861;23;45303;-80